• Join FlightAware (Why Join?)
  • Login
  • US Flag 
Gobble Gobble! 
03:25AM EST


 

Airport Tracker/Info


-or-


 

Live Flight TrackerFlight Track Log ✈ VRD69 ✈ 28-Jul-2013 ✈ KIAD - KSFO

Flight Track Log - Related Links

Times and Time Zones

All times are in EDT time to prevent confusion due to time zone crossing. See the VRD69 flight status page for this flight to view local times or setup timezone preferences in your user account.

Time Position Orientation Groundspeed Altitude Reporting Facility
EDT Latitude Longitude Course Direction KTS MPH feet Rate Location/Type
10:13AM 38.9460 -77.5210 265° West 159 183 1,900  Level FlightAware
10:13AM 38.9430 -77.5460 261° West 186 214 2,300 1,080 Climbing FlightAware
10:14AM 38.9380 -77.5830 260° West 225 259 2,900 1,500 Climbing FlightAware
10:14AM 38.9310 -77.6260 258° West 256 295 3,800 2,460 Climbing FlightAware
10:15AM 38.9090 -77.6790 242° Southwest 256 295 5,800 3,000 Climbing FlightAware
10:15AM 38.9030 -77.6940 243° Southwest 260 299 6,300 2,700 Climbing FlightAware
10:16AM 38.8840 -77.7310 237° Southwest 265 305 7,600 2,640 Climbing FlightAware
10:16AM 38.8740 -77.7530 240° Southwest 268 308 8,300 3,000 Climbing FlightAware
10:16AM 38.8730 -77.7770 267° West 269 310 9,100 2,040 Climbing FlightAware
10:17AM 38.8690 -77.8770 267° West 305 351 10,900 1,380 Climbing FlightAware
10:18AM 38.8650 -77.9640 267° West 349 402 11,600 1,200 Climbing FlightAware
10:19AM 38.8610 -78.0500 267° West 372 428 12,600 1,920 Climbing FlightAware
10:19AM 38.8570 -78.1510 267° West 374 430 14,400 2,040 Climbing FlightAware
10:20AM 38.8540 -78.2330 267° West 387 445 15,500 1,860 Climbing FlightAware
10:21AM 38.8530 -78.3740 270° West 393 452 17,400 1,860 Climbing FlightAware
10:22AM 38.8520 -78.4680 269° West 396 456 18,600 1,560 Climbing FlightAware
10:22AM 38.8500 -78.5740 269° West 403 464 19,700 1,440 Climbing FlightAware
10:23AM 38.8490 -78.6640 269° West 410 472 20,600 1,380 Climbing FlightAware
10:24AM 38.8480 -78.7610 269° West 417 480 21,500 1,380 Climbing FlightAware
10:24AM 38.8460 -78.8720 269° West 421 484 22,600 1,440 Climbing FlightAware
10:25AM 38.8440 -78.9810 269° West 421 484 23,700 1,500 Climbing FlightAware
10:26AM 38.8430 -79.0730 269° West 421 484 24,600 1,260 Climbing FlightAware
10:26AM 38.8410 -79.1700 269° West 425 489 25,300 1,020 Climbing FlightAware
10:27AM 38.8390 -79.2670 269° West 429 494 26,000 1,080 Climbing FlightAware
10:28AM 38.8370 -79.3740 269° West 432 497 26,800 1,200 Climbing FlightAware
10:29AM 38.8340 -79.5170 269° West 435 501 28,000 1,440 Climbing FlightAware
10:29AM 38.8320 -79.6400 269° West 429 494 29,300 1,620 Climbing FlightAware
10:30AM 38.8290 -79.7430 268° West 422 486 30,500 1,620 Climbing FlightAware
10:31AM 38.8270 -79.8380 268° West 423 487 31,500 1,380 Climbing FlightAware
10:31AM 38.8250 -79.9380 269° West 426 490 32,300 1,320 Climbing FlightAware
10:32AM 38.8220 -80.0510 268° West 423 487 33,400 1,260 Climbing FlightAware
10:33AM 38.8200 -80.1420 268° West 423 487 34,000 420 Climbing FlightAware
10:33AM 38.8170 -80.2400 268° West 425 489 34,000  Level FlightAware
10:34AM 38.8140 -80.3420 268° West 423 487 34,000  Level FlightAware
10:35AM 38.8110 -80.4450 268° West 423 487 34,000  Level FlightAware
10:35AM 38.8080 -80.5420 268° West 422 486 34,000  Level FlightAware
10:36AM 38.8050 -80.6360 268° West 421 484 34,000 60 Level FlightAware
10:37AM 38.8020 -80.7400 268° West 419 482 34,100  Climbing FlightAware
10:37AM 38.7990 -80.8330 268° West 415 478 34,000 -120 Descending FlightAware
10:38AM 38.7960 -80.9320 268° West 414 476 34,000  Level FlightAware
10:39AM 38.8010 -81.0160 274° West 435 501 34,000  Level FlightAware
10:39AM 38.8240 -81.1160 286° West 437 503 34,000  Level FlightAware
10:40AM 38.8440 -81.2090 285° West 439 505 34,000 60 Level FlightAware
10:41AM 38.8690 -81.3260 285° West 439 505 34,100  Climbing FlightAware
10:41AM 38.8920 -81.4360 285° West 439 505 34,000 -120 Descending FlightAware
10:42AM 38.9090 -81.5170 285° West 437 503 34,000  Level FlightAware
10:43AM 38.9320 -81.6280 285° West 434 499 34,000  Level FlightAware
10:43AM 38.9520 -81.7220 285° West 432 497 34,000  Level FlightAware
10:44AM 38.9710 -81.8140 285° West 430 495 34,000  Level FlightAware
10:45AM 38.9920 -81.9150 285° West 429 494 34,000  Level FlightAware
10:45AM 39.0130 -82.0160 285° West 430 495 34,000  Level FlightAware
10:46AM 39.0380 -82.1400 285° West 428 493 34,000  Level FlightAware
10:47AM 39.0580 -82.2390 285° West 427 491 34,000  Level FlightAware
10:48AM 39.0780 -82.3380 285° West 426 490 34,000  Level FlightAware
10:48AM 39.1010 -82.4500 285° West 425 489 34,000  Level FlightAware
10:49AM 39.1220 -82.5540 285° West 426 490 34,000  Level FlightAware
10:50AM 39.1400 -82.6440 284° West 428 493 34,000  Level FlightAware
10:50AM 39.1620 -82.7550 284° West 430 495 34,000  Level FlightAware
10:51AM 39.1780 -82.8380 284° West 430 495 34,000 60 Level FlightAware
10:52AM 39.1980 -82.9390 284° West 429 494 34,100 60 Climbing FlightAware
10:52AM 39.2210 -83.0560 284° West 424 488 34,100 -120 Level FlightAware
10:53AM 39.2410 -83.1570 284° West 423 487 34,000 -120 Descending FlightAware
10:54AM 39.2610 -83.2610 284° West 420 483 34,000  Level FlightAware
10:55AM 39.2860 -83.3920 284° West 419 482 34,000  Level FlightAware
10:55AM 39.3060 -83.4990 284° West 420 483 34,000  Level FlightAware
10:56AM 39.3210 -83.5760 284° West 420 483 34,000  Level FlightAware
10:57AM 39.3390 -83.6690 284° West 421 484 34,000  Level FlightAware
10:57AM 39.3600 -83.7770 284° West 420 483 34,000  Level FlightAware
10:58AM 39.3810 -83.8940 283° West 418 481 34,000 60 Level FlightAware
10:59AM 39.3990 -83.9880 284° West 412 474 34,100 60 Climbing FlightAware
10:59AM 39.4170 -84.0840 284° West 407 468 34,100 -120 Level FlightAware
11:00AM 39.4400 -84.2110 283° West 405 466 34,000 -60 Descending FlightAware
11:01AM 39.4660 -84.3550 283° West 400 460 34,000  Level FlightAware
11:02AM 39.4820 -84.4390 284° West 397 457 34,000  Level FlightAware
11:03AM 39.5050 -84.5650 283° West 393 452 34,000  Level FlightAware
11:04AM 39.5210 -84.6560 283° West 390 449 34,000  Level FlightAware
11:04AM 39.5380 -84.7540 283° West 389 448 34,000  Level FlightAware
11:05AM 39.5560 -84.8520 283° West 390 449 34,000  Level FlightAware
11:06AM 39.5730 -84.9470 283° West 390 449 34,000  Level FlightAware
11:06AM 39.5870 -85.0290 283° West 392 451 34,000  Level FlightAware
11:07AM 39.6050 -85.1260 284° West 393 452 34,000  Level FlightAware
11:08AM 39.6200 -85.2170 282° West 394 453 34,000  Level FlightAware
11:08AM 39.6380 -85.3210 283° West 394 453 34,000  Level FlightAware
11:09AM 39.6530 -85.4040 283° West 394 453 34,000  Level FlightAware
11:10AM 39.6700 -85.5030 283° West 394 453 34,000  Level FlightAware
11:10AM 39.6880 -85.6060 283° West 393 452 34,000  Level FlightAware
11:11AM 39.7050 -85.7080 282° West 392 451 34,000  Level FlightAware
11:12AM 39.7210 -85.8000 283° West 389 448 34,000  Level FlightAware
11:13AM 39.7350 -85.8840 282° West 388 447 34,000  Level FlightAware
11:13AM 39.7520 -85.9890 282° West 388 447 34,000  Level FlightAware
11:14AM 39.7680 -86.0830 283° West 387 445 34,000  Level FlightAware
11:15AM 39.7830 -86.1740 282° West 386 444 34,000  Level FlightAware
11:15AM 39.8020 -86.2740 284° West 386 444 34,000  Level FlightAware
11:16AM 39.8170 -86.3560 283° West 384 442 34,000  Level FlightAware
11:17AM 39.8350 -86.4520 284° West 383 441 34,000  Level FlightAware
11:17AM 39.8470 -86.5590 278° West 387 445 34,000  Level FlightAware
11:18AM 39.8530 -86.6610 274° West 386 444 34,000  Level FlightAware
11:19AM 39.8590 -86.7530 275° West 385 443 34,000  Level FlightAware
11:19AM 39.8650 -86.8360 275° West 384 442 34,000  Level FlightAware
11:21AM 39.8760 -87.0320 274° West 382 440 34,000  Level FlightAware
11:22AM 39.8820 -87.1260 275° West 381 438 34,000  Level FlightAware
11:22AM 39.8880 -87.2230 275° West 380 437 34,000  Level FlightAware
11:23AM 39.8950 -87.3570 274° West 381 438 34,000  Level FlightAware
11:24AM 39.9020 -87.4920 274° West 380 437 34,000  Level FlightAware
11:25AM 39.9080 -87.5800 275° West 378 435 34,000  Level FlightAware
11:26AM 39.9130 -87.6740 274° West 377 434 34,000  Level FlightAware
11:26AM 39.9180 -87.7600 274° West 376 433 34,000  Level FlightAware
11:27AM 39.9220 -87.8470 273° West 376 433 34,000  Level FlightAware
11:27AM 39.9260 -87.9130 275° West 375 432 34,000  Level FlightAware
11:28AM 39.9300 -87.9990 273° West 376 433 34,000  Level FlightAware
11:29AM 39.9340 -88.0820 274° West 376 433 34,000  Level FlightAware
11:29AM 39.9390 -88.1780 274° West 378 435 34,000  Level FlightAware
11:30AM 39.9440 -88.2710 274° West 380 437 34,000 60 Level FlightAware
11:31AM 39.9490 -88.3780 274° West 380 437 34,100  Climbing FlightAware
11:31AM 39.9530 -88.4700 273° West 379 436 34,000 -120 Descending FlightAware
11:32AM 39.9580 -88.5600 274° West 378 435 34,000  Level FlightAware
11:33AM 39.9620 -88.6510 273° West 376 433 34,000  Level FlightAware
11:33AM 39.9660 -88.7450 273° West 373 429 34,000  Level FlightAware
11:34AM 39.9700 -88.8310 274° West 371 427 34,000  Level FlightAware
11:35AM 39.9730 -88.9150 273° West 370 426 34,000  Level FlightAware
11:35AM 39.9770 -89.0030 273° West 369 425 34,000  Level FlightAware
11:36AM 39.9810 -89.0990 273° West 369 425 34,000  Level FlightAware
11:37AM 39.9850 -89.1870 273° West 369 425 34,000  Level FlightAware
11:38AM 39.9890 -89.2880 273° West 371 427 34,000  Level FlightAware
11:38AM 39.9930 -89.3750 273° West 373 429 34,000  Level FlightAware
11:39AM 39.9960 -89.4740 272° West 374 430 34,000  Level FlightAware
11:40AM 40.0000 -89.5640 273° West 373 429 34,000  Level FlightAware
11:40AM 40.0030 -89.6530 273° West 373 429 34,000  Level FlightAware
11:41AM 40.0070 -89.7430 273° West 373 429 34,000  Level FlightAware
11:42AM 40.0100 -89.8250 273° West 373 429 34,000  Level FlightAware
11:42AM 40.0130 -89.9350 272° West 375 432 34,000  Level FlightAware
11:43AM 40.0170 -90.0230 273° West 375 432 34,000  Level FlightAware
11:44AM 40.0200 -90.1200 272° West 377 434 34,000  Level FlightAware
11:44AM 40.0220 -90.2020 272° West 377 434 34,000  Level FlightAware
11:45AM 40.0260 -90.3060 273° West 378 435 34,000  Level FlightAware
11:46AM 40.0280 -90.3940 272° West 379 436 34,000  Level FlightAware
11:46AM 40.0310 -90.4890 272° West 380 437 34,000  Level FlightAware
11:47AM 40.0350 -90.5940 273° West 381 438 34,000  Level FlightAware
11:48AM 40.0370 -90.6900 272° West 381 438 34,000  Level FlightAware
11:49AM 40.0400 -90.7890 272° West 382 440 34,000  Level FlightAware
11:49AM 40.0420 -90.8670 272° West 381 438 34,000  Level FlightAware
11:50AM 40.0450 -90.9640 272° West 383 441 34,000  Level FlightAware
11:51AM 40.0480 -91.0850 272° West 384 442 34,000  Level FlightAware
11:51AM 40.0500 -91.1750 272° West 384 442 34,000  Level FlightAware
11:52AM 40.0520 -91.2640 272° West 384 442 34,000  Level FlightAware
11:53AM 40.0530 -91.3410 271° West 384 442 34,000  Level FlightAware
11:54AM 40.0570 -91.4700 272° West 383 441 34,000  Level FlightAware
11:54AM 40.0590 -91.5630 272° West 383 441 34,000  Level FlightAware
11:55AM 40.0600 -91.6560 271° West 384 442 34,000  Level FlightAware
11:56AM 40.0620 -91.7460 272° West 384 442 34,000  Level FlightAware
11:56AM 40.0630 -91.8210 271° West 384 442 34,000  Level FlightAware
11:57AM 40.0660 -91.9660 272° West 386 444 34,000  Level FlightAware
11:58AM 40.0670 -92.0490 271° West 386 444 34,000  Level FlightAware
11:59AM 40.0700 -92.2480 271° West 386 444 34,000  Level FlightAware
12:00PM 40.0720 -92.3590 271° West 388 447 34,000  Level FlightAware
12:01PM 40.0730 -92.4310 271° West 388 447 34,000  Level FlightAware
12:01PM 40.0750 -92.5720 271° West 388 447 34,000  Level FlightAware
12:02PM 40.0760 -92.6740 271° West 386 444 34,000  Level FlightAware
12:03PM 40.0770 -92.7630 271° West 385 443 34,000  Level FlightAware
12:03PM 40.0780 -92.8550 271° West 385 443 34,000  Level FlightAware
12:04PM 40.0790 -92.9470 271° West 385 443 34,000  Level FlightAware
12:05PM 40.0800 -93.0400 271° West 386 444 34,000  Level FlightAware
12:06PM 40.0800 -93.1430 270° West 387 445 34,000  Level FlightAware
12:06PM 40.0810 -93.2260 271° West 387 445 34,000  Level FlightAware
12:07PM 40.0810 -93.3380 270° West 388 447 34,000  Level FlightAware
12:08PM 40.0820 -93.4360 271° West 388 447 34,000  Level FlightAware
12:08PM 40.0820 -93.5350 270° West 387 445 34,000  Level FlightAware
12:09PM 40.0830 -93.6370 271° West 387 445 34,000  Level FlightAware
12:10PM 40.0830 -93.7270 270° West 388 447 34,000  Level FlightAware
12:10PM 40.0830 -93.8330 270° West 389 448 34,000  Level FlightAware
12:11PM 40.0830 -93.9180 270° West 391 450 34,000  Level FlightAware
12:12PM 40.0830 -94.0640 270° West 392 451 34,000  Level FlightAware
12:13PM 40.0830 -94.1660 270° West 393 452 34,000  Level FlightAware
12:13PM 40.0830 -94.2560 270° West 394 453 34,000  Level FlightAware
12:14PM 40.0820 -94.3580 269° West 395 455 34,000  Level FlightAware
12:15PM 40.0820 -94.4550 270° West 395 455 34,000  Level FlightAware
12:15PM 40.0820 -94.5420 270° West 394 453 34,000  Level FlightAware
12:16PM 40.0810 -94.6430 269° West 395 455 34,000  Level FlightAware
12:17PM 40.0800 -94.7370 269° West 396 456 34,000  Level FlightAware
12:17PM 40.0800 -94.8270 270° West 397 457 34,000  Level FlightAware
12:18PM 40.0790 -94.9210 269° West 398 458 34,000  Level FlightAware
12:19PM 40.0780 -95.0220 269° West 400 460 34,000  Level FlightAware
12:19PM 40.0770 -95.1100 269° West 401 461 34,000  Level FlightAware
12:22PM 40.0730 -95.4550 269° West 403 464 34,000  Level FlightAware
12:23PM 40.0720 -95.5360 269° West 403 464 34,000  Level FlightAware
12:23PM 40.0710 -95.6110 269° West 403 464 34,000  Level FlightAware
12:24PM 40.0690 -95.7310 269° West 403 464 34,000  Level FlightAware
12:25PM 40.0680 -95.8050 269° West 403 464 34,000  Level FlightAware
12:26PM 40.0670 -95.8860 269° West 403 464 34,000  Level FlightAware
12:26PM 40.0660 -95.9850 269° West 403 464 34,000  Level FlightAware
12:27PM 40.0610 -96.2320 269° West 396 456 34,000  Level FlightAware
12:28PM 40.0590 -96.3360 269° West 396 456 34,000  Level FlightAware
12:29PM 40.0560 -96.4440 268° West 398 458 34,000  Level FlightAware
12:30PM 40.0560 -96.4270 90° East 398 458 34,000  Level FlightAware
12:30PM 40.0660 -96.6120 274° West 394 453 34,000  Level FlightAware
12:31PM 40.0830 -96.6850 287° West 394 453 34,000  Level FlightAware
12:31PM 40.1140 -96.8150 287° West 34,000  Level FlightAware
12:32PM 40.1490 -96.9600 288° West 398 458 34,000  Level FlightAware
12:33PM 40.1730 -97.0580 288° West 399 459 34,000  Level FlightAware
12:34PM 40.2010 -97.1680 288° West 399 459 34,000  Level FlightAware
12:35PM 40.2240 -97.2600 288° West 399 459 34,000  Level FlightAware
12:35PM 40.2440 -97.3600 285° West 399 459 34,000  Level FlightAware
12:36PM 40.2670 -97.4500 289° West 399 459 34,000  Level FlightAware
12:37PM 40.2840 -97.5210 287° West 399 459 34,000  Level FlightAware
12:38PM 40.3070 -97.6150 288° West 399 459 34,000  Level FlightAware
12:38PM 40.3250 -97.6850 289° West 399 459 34,000  Level FlightAware
12:39PM 40.3490 -97.7810 288° West 399 459 34,000  Level FlightAware
12:40PM 40.3670 -97.8550 288° West 399 459 34,000  Level FlightAware
12:40PM 40.1980 -98.0760 225° Southwest 408 470 34,000  Level FlightAware
12:41PM 40.1940 -98.1540 266° West 408 470 34,000  Level FlightAware
12:41PM 40.1890 -98.2640 267° West 407 468 34,000  Level FlightAware
12:42PM 40.1840 -98.3610 266° West 407 468 34,000  Level FlightAware
12:43PM 40.1800 -98.4400 266° West 407 468 34,000  Level FlightAware
12:44PM 40.1740 -98.5420 266° West 407 468 34,000  Level FlightAware
12:44PM 40.1720 -98.5920 267° West 407 468 34,000  Level FlightAware
12:45PM 40.1660 -98.6890 265° West 407 468 34,000  Level FlightAware
12:46PM 40.1560 -98.9210 267° West 34,000  Level FlightAware
12:47PM 40.1500 -99.0200 265° West 34,000  Level FlightAware
12:47PM 40.1420 -99.1470 265° West 410 472 34,000  Level FlightAware
12:48PM 40.1360 -99.2550 266° West 411 473 34,000  Level FlightAware
12:49PM 40.1300 -99.3770 266° West 412 474 34,000  Level FlightAware
12:50PM 40.1220 -99.5140 266° West 411 473 34,000  Level FlightAware
12:51PM 40.1150 -99.6340 266° West 411 473 34,000  Level FlightAware
12:52PM 40.1060 -99.7680 265° West 412 474 34,000  Level FlightAware
12:52PM 40.1010 -99.8680 266° West 413 475 34,000  Level FlightAware
12:53PM 40.0940 -99.9710 265° West 413 475 34,000  Level FlightAware
12:54PM 40.0860 -100.0940 265° West 413 475 34,000  Level FlightAware
12:54PM 40.0800 -100.1940 266° West 415 478 34,000  Level FlightAware
12:55PM 40.0740 -100.2730 264° West 415 478 34,000  Level FlightAware
12:56PM 40.0680 -100.3750 266° West 415 478 34,000  Level FlightAware
12:57PM 40.0620 -100.4550 264° West 415 478 34,000  Level FlightAware
12:57PM 40.0570 -100.5320 265° West 415 478 34,000  Level FlightAware
12:58PM 40.0500 -100.6300 265° West 415 478 34,000  Level FlightAware
12:59PM 40.0420 -100.7570 265° West 415 478 34,000  Level FlightAware
01:00PM 40.0320 -100.9010 265° West 415 478 34,000 1,260 Level FlightAware
01:00PM 40.0169 -101.1010 264° West 405 466 36,000 2,100 Climbing FlightAware ADS-B
01:01PM 40.0114 -101.1770 265° West 405 466 36,000  Level FlightAware ADS-B
01:01PM 40.0059 -101.2510 264° West 404 465 36,000  Level FlightAware ADS-B
01:02PM 40.0002 -101.3270 264° West 403 464 36,000  Level FlightAware ADS-B
01:03PM 39.9947 -101.4000 264° West 403 464 36,000  Level FlightAware ADS-B
01:03PM 39.9891 -101.4740 264° West 403 464 36,000  Level FlightAware ADS-B
01:04PM 39.9835 -101.5470 264° West 403 464 36,000  Level FlightAware ADS-B
01:04PM 39.9777 -101.6210 264° West 403 464 36,000  Level FlightAware ADS-B
01:05PM 39.9718 -101.6980 264° West 403 464 36,000  Level FlightAware ADS-B
01:05PM 39.9660 -101.7720 264° West 403 464 36,000  Level FlightAware ADS-B
01:06PM 39.9602 -101.8450 264° West 402 463 36,000  Level FlightAware ADS-B
01:06PM 39.9540 -101.9210 264° West 403 464 36,000  Level FlightAware ADS-B
01:07PM 39.9480 -101.9940 264° West 404 465 36,000  Level FlightAware ADS-B
01:07PM 39.9421 -102.0680 264° West 404 465 36,000  Level FlightAware ADS-B
01:08PM 39.9361 -102.1420 264° West 404 465 36,000  Level FlightAware ADS-B
01:08PM 39.9299 -102.2170 264° West 406 467 36,000 60 Level FlightAware ADS-B
01:09PM 39.9236 -102.2910 264° West 403 464 36,100  Climbing FlightAware ADS-B
01:09PM 39.9173 -102.3650 264° West 405 466 36,000 -120 Descending FlightAware ADS-B
01:10PM 39.9112 -102.4390 264° West 404 465 36,000  Level FlightAware ADS-B
01:10PM 39.9051 -102.5100 264° West 402 463 36,000  Level FlightAware ADS-B
01:11PM 39.8975 -102.6010 264° West 403 464 36,000  Level FlightAware ADS-B
01:11PM 39.8903 -102.6830 263° West 403 464 36,000  Level FlightAware ADS-B
01:12PM 39.8834 -102.7610 263° West 405 466 36,000  Level FlightAware ADS-B
01:12PM 39.8769 -102.8340 263° West 405 466 36,000  Level FlightAware ADS-B
01:13PM 39.8703 -102.9090 263° West 406 467 36,000  Level FlightAware ADS-B
01:13PM 39.8636 -102.9830 263° West 406 467 36,000  Level FlightAware ADS-B
01:14PM 39.8571 -103.0550 263° West 406 467 36,000  Level FlightAware ADS-B
01:14PM 39.8505 -103.1290 263° West 407 468 36,000  Level FlightAware ADS-B
01:15PM 39.8435 -103.2060 263° West 408 470 36,000  Level FlightAware ADS-B
01:16PM 39.8366 -103.2810 263° West 408 470 36,000  Level FlightAware ADS-B
01:16PM 39.8298 -103.3540 263° West 406 467 36,000  Level FlightAware ADS-B
01:17PM 39.8229 -103.4280 263° West 406 467 36,000  Level FlightAware ADS-B
01:17PM 39.8160 -103.5010 263° West 405 466 36,000  Level FlightAware ADS-B
01:18PM 39.8086 -103.5780 263° West 404 465 36,000  Level FlightAware ADS-B
01:18PM 39.8017 -103.6510 263° West 405 466 36,000  Level FlightAware ADS-B
01:19PM 39.7950 -103.7210 263° West 406 467 36,000  Level FlightAware ADS-B
01:19PM 39.7877 -103.7980 263° West 406 467 36,000  Level FlightAware ADS-B
01:20PM 39.7802 -103.8740 263° West 407 468 36,000  Level FlightAware ADS-B
01:20PM 39.7730 -103.9470 263° West 408 470 36,000  Level FlightAware ADS-B
01:21PM 39.7658 -104.0210 263° West 408 470 36,000 60 Level FlightAware ADS-B
01:21PM 39.7586 -104.0940 263° West 406 467 36,100  Climbing FlightAware ADS-B
01:22PM 39.7511 -104.1690 263° West 405 466 36,000 -120 Descending FlightAware ADS-B
01:22PM 39.7438 -104.2410 263° West 404 465 36,000  Level FlightAware ADS-B
01:23PM 39.7362 -104.3150 262° West 404 465 36,000  Level FlightAware ADS-B
01:23PM 39.7289 -104.3870 263° West 404 465 36,000  Level FlightAware ADS-B
01:24PM 39.7215 -104.4600 263° West 404 465 36,000  Level FlightAware ADS-B
01:24PM 39.7141 -104.5320 262° West 405 466 36,000  Level FlightAware ADS-B
01:25PM 39.7065 -104.6040 262° West 404 465 36,000  Level FlightAware ADS-B
01:25PM 39.6989 -104.6760 262° West 404 465 36,000  Level FlightAware ADS-B
01:26PM 39.6912 -104.7490 262° West 403 464 36,000  Level FlightAware ADS-B
01:26PM 39.6833 -104.8240 262° West 404 465 36,000  Level FlightAware ADS-B
01:27PM 39.6745 -104.9070 262° West 404 465 36,000  Level FlightAware ADS-B
01:27PM 39.6666 -104.9800 262° West 404 465 36,000  Level FlightAware ADS-B
01:28PM 39.6584 -105.0570 262° West 405 466 36,000  Level FlightAware ADS-B
01:28PM 39.6502 -105.1340 262° West 406 467 36,000  Level FlightAware ADS-B
01:29PM 39.6422 -105.2080 262° West 407 468 36,000  Level FlightAware ADS-B
01:29PM 39.6342 -105.2800 262° West 408 470 36,000  Level FlightAware ADS-B
01:30PM 39.6261 -105.3530 262° West 410 472 36,000  Level FlightAware ADS-B
01:30PM 39.6179 -105.4260 262° West 411 473 36,000  Level FlightAware ADS-B
01:31PM 39.6097 -105.5000 262° West 411 473 36,000  Level FlightAware ADS-B
01:31PM 39.6016 -105.5720 262° West 413 475 36,000  Level FlightAware ADS-B
01:32PM 39.5928 -105.6490 262° West 412 474 36,000  Level FlightAware ADS-B
01:32PM 39.5824 -105.7400 262° West 412 474 36,000  Level FlightAware ADS-B
01:33PM 39.5738 -105.8160 262° West 410 472 36,000  Level FlightAware ADS-B
01:34PM 39.5652 -105.8900 261° West 409 471 36,000  Level FlightAware ADS-B
01:34PM 39.5564 -105.9670 262° West 408 470 36,000  Level FlightAware ADS-B
01:35PM 39.5475 -106.0440 261° West 409 471 36,000  Level FlightAware ADS-B
01:35PM 39.5383 -106.1220 261° West 410 472 36,000  Level FlightAware ADS-B
01:36PM 39.5263 -106.2220 261° West 409 471 36,000  Level FlightAware ADS-B
01:36PM 39.5177 -106.2950 261° West 410 472 36,000  Level FlightAware ADS-B
01:37PM 39.5088 -106.3690 261° West 411 473 36,000  Level FlightAware ADS-B
01:37PM 39.5000 -106.4420 261° West 410 472 36,000  Level FlightAware ADS-B
01:38PM 39.4904 -106.5200 261° West 410 472 36,000  Level FlightAware ADS-B
01:38PM 39.4815 -106.5930 261° West 410 472 36,000  Level FlightAware ADS-B
01:39PM 39.4725 -106.6670 261° West 410 472 36,000  Level FlightAware ADS-B
01:39PM 39.4635 -106.7410 261° West 410 472 36,000  Level FlightAware ADS-B
01:40PM 39.4542 -106.8160 261° West 411 473 36,000  Level FlightAware ADS-B
01:40PM 39.4450 -106.8910 261° West 409 471 36,000  Level FlightAware ADS-B
01:41PM 39.4359 -106.9630 261° West 408 470 36,000  Level FlightAware ADS-B
01:41PM 39.4267 -107.0370 261° West 407 468 36,000  Level FlightAware ADS-B
01:42PM 39.4175 -107.1090 261° West 406 467 36,000  Level FlightAware ADS-B
01:42PM 39.4083 -107.1810 261° West 405 466 36,000  Level FlightAware ADS-B
01:43PM 39.3991 -107.2540 261° West 403 464 36,000  Level FlightAware ADS-B
01:43PM 39.3899 -107.3260 261° West 403 464 36,000  Level FlightAware ADS-B
01:44PM 39.3806 -107.3970 260° West 401 461 36,000  Level FlightAware ADS-B
01:44PM 39.3711 -107.4700 260° West 402 463 36,000  Level FlightAware ADS-B
01:45PM 39.3580 -107.5750 261° West 402 463 36,000  Level FlightAware
01:46PM 39.3430 -107.6890 260° West 402 463 36,000  Level FlightAware
01:46PM 39.3340 -107.7530 260° West 403 464 36,000  Level FlightAware
01:47PM 39.3190 -107.8660 260° West 401 461 36,000 -180 Level FlightAware
01:48PM 39.3060 -107.9610 260° West 401 461 35,800 -600 Descending FlightAware
01:49PM 39.2920 -108.0650 260° West 408 470 35,200 -1,020 Descending FlightAware
01:49PM 39.2780 -108.1660 260° West 413 475 34,400 -960 Descending FlightAware
01:50PM 39.2670 -108.2530 261° West 417 480 34,000 -300 Descending FlightAware
01:51PM 39.2510 -108.3680 260° West 417 480 34,000  Level FlightAware
01:51PM 39.2370 -108.4690 260° West 418 481 34,000  Level FlightAware
01:52PM 39.2230 -108.5730 260° West 416 479 34,000  Level FlightAware
01:53PM 39.2090 -108.6710 260° West 417 480 34,000  Level FlightAware
01:53PM 39.1970 -108.7570 260° West 417 480 34,000  Level FlightAware
01:54PM 39.1800 -108.8700 259° West 419 482 34,000  Level FlightAware
01:55PM 39.1670 -108.9600 259° West 419 482 34,000  Level FlightAware
01:55PM 39.1530 -109.0570 259° West 421 484 34,000  Level FlightAware
01:56PM 39.1360 -109.1780 260° West 420 483 34,000  Level FlightAware
01:57PM 39.1210 -109.2770 259° West 419 482 34,000  Level FlightAware
01:58PM 39.1080 -109.3720 260° West 419 482 34,000  Level FlightAware
01:58PM 39.0940 -109.4630 259° West 419 482 34,000  Level FlightAware
01:59PM 39.0790 -109.5610 259° West 418 481 34,000  Level FlightAware
02:00PM 39.0640 -109.6660 260° West 419 482 34,000  Level FlightAware
02:00PM 39.0490 -109.7680 259° West 418 481 34,000  Level FlightAware
02:01PM 39.0340 -109.8650 259° West 418 481 34,000  Level FlightAware
02:02PM 39.0180 -109.9680 259° West 419 482 34,000  Level FlightAware
02:03PM 38.9980 -110.1020 259° West 419 482 34,000  Level FlightAware
02:03PM 38.9820 -110.2020 258° West 420 483 34,000  Level FlightAware
02:04PM 38.9670 -110.2980 259° West 420 483 34,000  Level FlightAware
02:05PM 38.9460 -110.4360 259° West 419 482 34,000  Level FlightAware
02:06PM 38.9290 -110.5400 258° West 419 482 34,000  Level FlightAware
02:06PM 38.9210 -110.5940 259° West 420 483 34,000  Level FlightAware
02:07PM 38.9030 -110.7070 258° West 419 482 34,000  Level FlightAware
02:07PM 38.8890 -110.7940 258° West 418 481 34,000  Level FlightAware
02:08PM 38.8700 -110.9110 258° West 418 481 34,000  Level FlightAware
02:09PM 38.8530 -111.0150 258° West 419 482 34,000  Level FlightAware
02:10PM 38.8340 -111.1300 258° West 419 482 34,000  Level FlightAware
02:10PM 38.8239 -111.1930 258° West 420 483 34,000  Level FlightAware ADS-B
02:11PM 38.8035 -111.3170 258° West 420 483 34,000  Level FlightAware ADS-B
02:12PM 38.7882 -111.4090 258° West 420 483 34,000  Level FlightAware ADS-B
02:12PM 38.7735 -111.4990 258° West 420 483 34,000  Level FlightAware ADS-B
02:13PM 38.7522 -111.6250 258° West 421 484 34,000  Level FlightAware ADS-B
02:14PM 38.7383 -111.7070 258° West 423 487 34,000  Level FlightAware ADS-B
02:14PM 38.7251 -111.7850 258° West 422 486 34,000  Level FlightAware ADS-B
02:15PM 38.7096 -111.8750 258° West 422 486 34,000  Level FlightAware ADS-B
02:15PM 38.6942 -111.9660 258° West 422 486 34,000  Level FlightAware ADS-B
02:16PM 38.6815 -112.0410 258° West 421 484 34,000  Level FlightAware ADS-B
02:17PM 38.6627 -112.1490 257° West 421 484 34,000  Level FlightAware ADS-B
02:17PM 38.6499 -112.2230 258° West 421 484 34,000  Level FlightAware ADS-B
02:18PM 38.6372 -112.2960 257° West 422 486 34,000  Level FlightAware ADS-B
02:18PM 38.6201 -112.3930 257° West 421 484 34,000  Level FlightAware ADS-B
02:19PM 38.6370 -112.3190 74° East 420 483 34,000  Level FlightAware
02:19PM 38.5929 -112.5480 256° West 422 486 34,000  Level FlightAware ADS-B
02:20PM 38.5720 -112.6660 257° West 422 486 34,000  Level FlightAware ADS-B
02:21PM 38.5608 -112.7308 257° West 423 487 34,000  Level Salt Lake Center
02:22PM 38.5294 -112.9042 257° West 421 484 34,000  Level Salt Lake Center
02:23PM 38.5033 -113.0497 257° West 421 484 34,000  Level Salt Lake Center
02:24PM 38.4764 -113.1953 257° West 423 487 34,000  Level Salt Lake Center
02:25PM 38.4506 -113.3400 257° West 421 484 34,000  Level Salt Lake Center
02:26PM 38.4242 -113.4839 257° West 418 481 34,000  Level Salt Lake Center
02:27PM 38.3964 -113.6289 256° West 421 484 34,000  Level Salt Lake Center
02:28PM 38.3650 -113.8019 257° West 421 484 34,000  Level Salt Lake Center
02:29PM 38.3367 -113.9458 256° West 421 484 34,000  Level Salt Lake Center
02:30PM 38.3094 -114.0908 257° West 423 487 34,000  Level Salt Lake Center
02:31PM 38.2825 -114.2297 256° West 411 473 34,000  Level Salt Lake Center
02:32PM 38.2564 -114.3656 256° West 400 460 34,000  Level Salt Lake Center
02:33PM 38.2506 -114.5358 268° West 404 465 34,000  Level Salt Lake Center
02:34PM 38.3206 -114.6625 305° West 441 507 34,000  Level Salt Lake Center
02:35PM 38.3864 -114.7858 304° West 420 483 34,100  Climbing Salt Lake Center
02:36PM 38.3769 -114.9303 265° West 405 466 34,000 -60 Descending Salt Lake Center
02:37PM 38.3617 -115.0706 262° West 400 460 34,000  Level Salt Lake Center
02:38PM 38.3447 -115.2131 261° West 405 466 34,000  Level Salt Lake Center
02:39PM 38.3253 -115.3683 261° West 403 464 34,000  Level Salt Lake Center
02:40PM 38.3075 -115.5100 261° West 405 466 34,000  Level Salt Lake Center
02:41PM 38.2903 -115.6511 261° West 404 465 34,000  Level Salt Lake Center
02:42PM 38.2686 -115.8211 261° West 404 465 34,000  Level Salt Lake Center
02:44PM 38.2506 -115.9628 261° West 406 467 34,000  Level Salt Lake Center
02:45PM 38.2322 -116.1019 261° West 402 463 34,000  Level Salt Lake Center
02:46PM 38.2147 -116.2436 261° West 403 464 34,000  Level Salt Lake Center
02:47PM 38.1950 -116.3836 260° West 404 465 34,000  Level Salt Lake Center
02:48PM 38.1769 -116.5250 261° West 403 464 34,000  Level Salt Lake Center
02:49PM 38.1583 -116.6642 260° West 402 463 34,000  Level Salt Lake Center
02:50PM 38.1347 -116.8333 260° West 404 465 34,000  Level Salt Lake Center
02:51PM 38.1156 -116.9744 260° West 404 465 34,000  Level Salt Lake Center
02:52PM 38.0967 -117.1156 260° West 401 461 34,000  Level Salt Lake Center
02:58PM 38.1320 -118.0320 260° West 416 479 34,000  Level FlightAware
02:59PM 38.1330 -118.1120 271° West 416 479 34,000  Level FlightAware
02:59PM 38.1330 -118.2180 270° West 416 479 34,000  Level FlightAware
03:00PM 38.1330 -118.2950 270° West 416 479 34,000  Level FlightAware
03:01PM 38.1330 -118.3950 270° West 416 479 34,000  Level FlightAware
03:01PM 38.1330 -118.4720 270° West 416 479 34,000  Level FlightAware
03:02PM 38.1330 -118.5720 270° West 416 479 34,000  Level FlightAware
03:03PM 38.1330 -118.6420 270° West 416 479 34,000  Level FlightAware
03:04PM 38.2400 -118.8340 305° West 427 491 34,000  Level FlightAware
03:05PM 38.2430 -118.9930 271° West 402 463 34,000  Level FlightAware
03:05PM 38.2150 -119.0860 249° West 403 464 34,000  Level FlightAware
03:06PM 38.1870 -119.1830 250° West 403 464 34,000  Level FlightAware
03:07PM 38.1590 -119.2760 249° West 406 467 34,000  Level FlightAware
03:08PM 38.1300 -119.3700 249° West 410 472 34,000 -180 Level FlightAware
03:08PM 38.0990 -119.4690 248° West 418 481 33,800 -480 Descending FlightAware
03:09PM 38.0740 -119.5530 249° West 418 481 33,400 -720 Descending FlightAware
03:10PM 38.0369 -119.6710 248° West 423 487 32,800 -720 Descending FlightAware ADS-B
03:10PM 38.0120 -119.7500 248° West 422 486 32,400 -720 Descending FlightAware
03:11PM 37.9998 -119.7900 249° West 422 486 32,200 -720 Descending FlightAware ADS-B
03:12PM 37.9520 -119.9430 248° West 422 486 31,400 -780 Descending FlightAware
03:12PM 37.9240 -120.0300 248° West 421 484 30,900 -720 Descending FlightAware
03:13PM 37.8945 -120.1250 249° West 419 482 30,500 -720 Descending FlightAware ADS-B
03:14PM 37.8670 -120.2120 248° West 419 482 30,000 -780 Descending FlightAware ADS-B
03:14PM 37.8409 -120.2940 248° West 420 483 29,600 -720 Descending FlightAware ADS-B
03:15PM 37.8172 -120.3690 248° West 421 484 29,200 -660 Descending FlightAware ADS-B
03:15PM 37.7943 -120.4400 248° West 418 481 28,900 -660 Descending FlightAware ADS-B
03:16PM 37.7706 -120.5150 248° West 416 479 28,500 -1,320 Descending FlightAware ADS-B
03:17PM 37.7414 -120.6060 248° West 411 473 27,300 -2,160 Descending FlightAware ADS-B
03:17PM 37.7162 -120.6840 248° West 406 467 25,800 -2,340 Descending FlightAware ADS-B
03:18PM 37.6919 -120.7590 248° West 396 456 24,600 -2,220 Descending FlightAware ADS-B
03:18PM 37.6707 -120.8240 248° West 388 447 23,400 -2,340 Descending FlightAware ADS-B
03:19PM 37.6300 -120.9500 248° West 376 433 20,900 -1,320 Descending FlightAware
03:21PM 37.6000 -121.1980 261° West 359 413 19,500 -1,140 Descending FlightAware
03:22PM 37.5900 -121.2590 258° West 350 403 18,200 -3,540 Descending FlightAware
03:22PM 37.5502 -121.3170 229° Southwest 364 419 15,600 -3,960 Descending FlightAware ADS-B
03:23PM 37.5113 -121.3650 224° Southwest 373 429 13,700 -3,240 Descending FlightAware ADS-B
03:23PM 37.4857 -121.3970 225° Southwest 361 415 12,800 -2,580 Descending FlightAware ADS-B
03:23PM 37.4781 -121.4080 229° Southwest 357 411 12,500 -2,520 Descending FlightAware ADS-B
03:24PM 37.4696 -121.4250 238° Southwest 355 409 12,100 -1,740 Descending FlightAware ADS-B
03:24PM 37.4761 -121.5060 276° West 325 374 11,000 -1,020 Descending FlightAware ADS-B
03:25PM 37.4845 -121.5490 284° West 287 330 11,000 -120 Level FlightAware ADS-B
03:25PM 37.4831 -121.5920 268° West 250 288 10,900 -840 Descending FlightAware ADS-B
03:26PM 37.4831 -121.6360 270° West 244 281 10,200 -1,320 Descending FlightAware ADS-B
03:26PM 37.4832 -121.6570 270° West 233 268 9,900 -1,020 Descending FlightAware ADS-B
03:26PM 37.4831 -121.6780 270° West 221 254 9,700 -1,140 Descending FlightAware ADS-B
03:26PM 37.4830 -121.6990 270° West 220 253 9,300 -1,080 Descending FlightAware ADS-B
03:27PM 37.4829 -121.7220 270° West 222 255 9,100 -540 Descending FlightAware ADS-B
03:27PM 37.4829 -121.7420 270° West 224 258 9,000 -240 Descending FlightAware ADS-B
03:27PM 37.4829 -121.7630 270° West 223 257 9,000 -360 Level FlightAware ADS-B
03:28PM 37.4828 -121.7860 270° West 218 251 8,800 -1,080 Descending FlightAware ADS-B
03:28PM 37.4827 -121.8060 270° West 219 252 8,400 -1,260 Descending FlightAware ADS-B
03:28PM 37.4826 -121.8300 270° West 217 250 8,100 -540 Descending FlightAware ADS-B
03:29PM 37.4823 -121.8670 269° West 216 249 8,000 -180 Descending FlightAware ADS-B
03:29PM 37.4823 -121.8750 270° West 216 249 8,000  Level FlightAware ADS-B
03:29PM 37.4825 -121.8790 274° West 216 249 8,000 -900 Level FlightAware ADS-B
03:29PM 37.4829 -121.8840 276° West 217 250 7,900 -780 Descending FlightAware ADS-B
03:29PM 37.4838 -121.8890 283° West 217 250 7,900 -900 Level FlightAware ADS-B
03:29PM 37.4879 -121.9080 285° West 212 244 7,600 -1,200 Descending FlightAware ADS-B
03:29PM 37.4904 -121.9200 285° West 208 239 7,400 -1,200 Descending FlightAware ADS-B
03:30PM 37.4940 -121.9380 284° West 206 237 7,100 -1,140 Descending FlightAware ADS-B
03:30PM 37.4976 -121.9570 283° West 203 234 6,800 -1,140 Descending FlightAware ADS-B
03:30PM 37.5011 -121.9750 284° West 203 234 6,500 -1,200 Descending FlightAware ADS-B
03:31PM 37.5051 -121.9960 284° West 198 228 6,100 -1,200 Descending FlightAware ADS-B
03:31PM 37.5070 -122.0040 287° West 194 223 6,000 -900 Descending FlightAware ADS-B
03:31PM 37.5094 -122.0110 293° West 191 220 5,900 -1,140 Descending FlightAware ADS-B
03:31PM 37.5143 -122.0270 291° West 182 209 5,600 -1,020 Descending FlightAware ADS-B
03:31PM 37.5169 -122.0350 292° West 177 204 5,500 -1,020 Descending FlightAware ADS-B
03:31PM 37.5214 -122.0490 292° West 173 199 5,200 -1,440 Descending FlightAware ADS-B
03:32PM 37.5257 -122.0630 291° West 169 194 4,800 -1,500 Descending FlightAware ADS-B
03:32PM 37.5294 -122.0760 290° West 167 192 4,500 -1,500 Descending FlightAware ADS-B
03:32PM 37.5345 -122.0920 292° West 166 191 4,000 -1,440 Descending FlightAware ADS-B
03:32PM 37.5388 -122.1060 291° West 165 190 3,700 -1,380 Descending FlightAware ADS-B
03:33PM 37.5419 -122.1170 290° West 166 191 3,400 -1,080 Descending FlightAware ADS-B
03:33PM 37.5435 -122.1220 292° West 165 190 3,400 -900 Level FlightAware ADS-B
03:33PM 37.5476 -122.1360 290° West 165 190 3,100 -840 Descending FlightAware ADS-B
03:33PM 37.5515 -122.1480 292° West 168 193 3,000 -840 Descending FlightAware ADS-B
03:33PM 37.5560 -122.1630 291° West 172 198 2,700 -1,020 Descending FlightAware ADS-B
03:34PM 37.5603 -122.1770 291° West 170 196 2,500 -840 Descending FlightAware ADS-B
03:34PM 37.5641 -122.1900 290° West 167 192 2,300 -840 Descending FlightAware ADS-B
03:34PM 37.5685 -122.2040 292° West 164 189 2,100 -900 Descending FlightAware ADS-B
03:34PM 37.5718 -122.2140 293° West 164 189 1,900 -540 Descending FlightAware ADS-B
03:35PM 37.5748 -122.2240 291° West 162 186 1,900  Level FlightAware ADS-B
03:35PM 37.5767 -122.2310 289° West 163 188 1,900 -300 Level FlightAware ADS-B
03:35PM 37.5806 -122.2450 289° West 161 185 1,800 -480 Descending FlightAware ADS-B
03:35PM 37.5828 -122.2530 289° West 153 176 1,700 -540 Descending FlightAware ADS-B
03:35PM 37.5858 -122.2650 288° West 140 161 1,600 -480 Descending FlightAware ADS-B
03:36PM 37.5884 -122.2740 290° West 131 151 1,500 -840 Descending FlightAware ADS-B
03:36PM 37.5910 -122.2850 287° West 129 148 1,200 -1,020 Descending FlightAware ADS-B
03:36PM 37.5938 -122.2970 286° West 128 147 1,000 -600 Descending FlightAware ADS-B
03:36PM 37.5964 -122.3080 287° West 129 148 900 -480 Descending FlightAware ADS-B
03:37PM 37.6007 -122.3250 288° West 130 150 700 -720 Descending FlightAware ADS-B
03:37PM 37.6039 -122.3340 294° West 125 144 500 -840 Descending FlightAware ADS-B
03:37PM 37.6060 -122.3390 298° West 125 144 400 -600 Descending FlightAware ADS-B
03:37PM 37.6089 -122.3460 298° West 122 140 300 -600 Descending FlightAware ADS-B
03:38PM 37.6119 -122.3530 298° West 121 139 200 -600 Descending FlightAware ADS-B
03:38PM 37.6143 -122.3590 297° West 120 138 100 -720 Descending FlightAware ADS-B
03:38PM 37.6220 -122.3780 297° West 96 110 -180 Descending FlightAware
03:39PM 37.6200 -122.3790 202° Southwest 18 21  Level FlightAware
03:40PM 37.6180 -122.3800 202° Southwest 13 15  Level FlightAware
03:46PM 37.6167 -122.3667 322° Northwest  Level FlightAware Approximate
03:47PM 37.6191 -122.3752 322° Northwest  Level Estimated